createdAt,value
2023-03-02T00:03:08.369Z,3.67
2023-03-02T00:08:11.914Z,4.36
2023-03-02T00:13:16.758Z,4.06
2023-03-02T00:18:20.150Z,3.88
2023-03-02T00:23:23.577Z,3.62
2023-03-02T00:28:29.585Z,3.95
2023-03-02T00:33:33.156Z,3.41
2023-03-02T00:38:36.585Z,4.01
2023-03-02T00:43:41.868Z,3.88
2023-03-02T00:48:46.162Z,3.90
2023-03-02T00:53:49.770Z,3.85
2023-03-02T00:58:56.361Z,3.47
2023-03-02T01:04:00.757Z,3.74
2023-03-02T01:09:04.503Z,2.78
2023-03-02T01:14:09.374Z,3.28
2023-03-02T01:19:13.159Z,3.40
2023-03-02T01:24:16.974Z,3.25
2023-03-02T01:29:21.754Z,3.53
2023-03-02T01:34:25.559Z,3.47
2023-03-02T01:39:28.971Z,3.25
2023-03-02T01:44:43.551Z,3.52
2023-03-02T01:49:51.819Z,3.39
2023-03-02T01:55:00.134Z,3.42
2023-03-02T02:00:10.297Z,3.40
2023-03-02T02:05:20.765Z,3.33
2023-03-02T02:10:24.672Z,2.85
2023-03-02T02:15:29.745Z,3.19
2023-03-02T02:20:37.791Z,3.30
2023-03-02T02:25:58.131Z,3.30
2023-03-02T02:31:09.097Z,2.82
2023-03-02T02:36:19.696Z,1.86
2023-03-02T02:41:29.385Z,3.03
2023-03-02T02:46:36.234Z,3.18
2023-03-02T02:51:39.852Z,3.08
2023-03-02T02:56:45.613Z,3.13
2023-03-02T03:01:50.937Z,3.08
2023-03-02T03:06:58.350Z,2.57
2023-03-02T03:12:15.482Z,0.91
2023-03-02T03:17:19.131Z,1.16
2023-03-02T03:22:28.842Z,2.88
2023-03-02T03:27:34.605Z,2.74
2023-03-02T03:32:39.735Z,2.31
2023-03-02T03:37:45.710Z,2.37
2023-03-02T03:42:52.222Z,2.66
2023-03-02T03:47:55.766Z,2.57
2023-03-02T03:52:59.331Z,2.17
2023-03-02T03:58:06.612Z,1.88
2023-03-02T04:03:10.999Z,2.46
2023-03-02T04:08:14.925Z,1.72
2023-03-02T04:13:22.337Z,2.23
2023-03-02T04:18:26.650Z,2.41
2023-03-02T04:23:31.056Z,2.38
2023-03-02T04:28:36.064Z,0.34
2023-03-02T04:33:40.029Z,2.35
2023-03-02T04:38:43.811Z,2.32
2023-03-02T04:43:48.818Z,2.32
2023-03-02T04:48:58.685Z,2.26
2023-03-02T04:54:23.260Z,2.25
2023-03-02T04:59:31.545Z,2.08
2023-03-02T05:04:35.049Z,2.17
2023-03-02T05:09:38.379Z,2.17
2023-03-02T05:14:45.418Z,2.17
2023-03-02T05:19:49.056Z,1.95
2023-03-02T05:24:52.460Z,1.92
2023-03-02T05:29:57.421Z,1.00
2023-03-02T05:35:00.844Z,2.12
2023-03-02T05:40:06.526Z,2.11
2023-03-02T05:45:20.077Z,1.77
2023-03-02T05:50:23.745Z,2.08
2023-03-02T05:55:27.842Z,2.05
2023-03-02T06:00:32.716Z,2.00
2023-03-02T06:05:36.649Z,1.89
2023-03-02T06:10:40.207Z,1.61
2023-03-02T06:15:44.978Z,1.71
2023-03-02T06:20:48.576Z,1.79
2023-03-02T06:25:52.027Z,1.80
2023-03-02T06:30:56.897Z,1.84
2023-03-02T06:36:00.581Z,1.57
2023-03-02T06:41:04.510Z,1.63
2023-03-02T06:46:10.840Z,1.90
2023-03-02T06:51:14.442Z,1.89
2023-03-02T06:56:17.985Z,1.92
2023-03-02T07:01:23.032Z,1.64
2023-03-02T07:06:26.434Z,1.31
2023-03-02T07:11:30.421Z,2.05
2023-03-02T07:16:36.148Z,1.77
2023-03-02T07:21:39.591Z,1.85
2023-03-02T07:26:43.145Z,1.55
2023-03-02T07:31:48.774Z,2.36
2023-03-02T07:36:54.079Z,-0.86
2023-03-02T07:42:00.007Z,1.45
2023-03-02T07:47:06.477Z,2.57
2023-03-02T07:52:10.050Z,2.63
2023-03-02T07:57:16.111Z,2.73
2023-03-02T08:02:21.433Z,2.84
2023-03-02T08:07:24.993Z,2.90
2023-03-02T08:12:28.838Z,0.21
2023-03-02T08:17:40.064Z,-0.68
2023-03-02T08:22:54.902Z,1.31
2023-03-02T08:28:01.216Z,1.80
2023-03-02T08:33:09.591Z,3.11
2023-03-02T08:38:17.159Z,2.41
2023-03-02T08:43:22.040Z,3.23
2023-03-02T08:48:28.449Z,1.59
2023-03-02T08:53:34.611Z,3.53
2023-03-02T08:58:39.415Z,3.05
2023-03-02T09:03:47.790Z,4.18
2023-03-02T09:08:51.290Z,3.89
2023-03-02T09:13:56.179Z,4.03
2023-03-02T09:19:01.174Z,3.91
2023-03-02T09:24:05.167Z,3.79
2023-03-02T09:29:13.327Z,4.98
2023-03-02T09:34:18.325Z,3.88
2023-03-02T09:39:21.946Z,5.29
2023-03-02T09:44:56.532Z,5.35
2023-03-02T09:50:07.393Z,5.12
2023-03-02T09:55:16.647Z,5.33
2023-03-02T10:00:27.910Z,6.13
2023-03-02T10:05:39.864Z,6.36
2023-03-02T10:10:47.707Z,5.66
2023-03-02T10:16:04.665Z,6.81
2023-03-02T10:21:15.453Z,6.83
2023-03-02T10:26:35.310Z,7.31
2023-03-02T10:31:43.345Z,7.55
2023-03-02T10:36:48.272Z,6.56
2023-03-02T10:41:57.217Z,7.75
2023-03-02T10:47:01.151Z,8.16
2023-03-02T10:52:16.871Z,6.88
2023-03-02T10:57:31.326Z,8.63
2023-03-02T11:02:37.572Z,8.71
2023-03-02T11:07:53.433Z,9.07
2023-03-02T11:12:57.189Z,8.81
2023-03-02T11:18:06.237Z,9.33
2023-03-02T11:23:34.172Z,9.45
2023-03-02T11:28:48.265Z,9.40
2023-03-02T11:34:16.708Z,8.89
2023-03-02T11:39:27.016Z,10.21
2023-03-02T11:44:31.122Z,9.66
2023-03-02T11:49:41.146Z,9.31
2023-03-02T11:54:51.179Z,10.65
2023-03-02T11:59:58.915Z,10.80
2023-03-02T12:05:04.750Z,11.03
2023-03-02T12:10:28.517Z,11.19
2023-03-02T12:15:43.290Z,11.61
2023-03-02T12:20:47.233Z,11.76
2023-03-02T12:26:04.233Z,11.76
2023-03-02T12:31:16.222Z,12.16
2023-03-02T12:36:28.387Z,11.80
2023-03-02T12:41:54.191Z,12.21
2023-03-02T12:47:03.948Z,9.61
2023-03-02T12:52:24.233Z,11.24
2023-03-02T12:57:29.616Z,12.25
2023-03-02T13:02:35.639Z,12.25
2023-03-02T13:07:44.460Z,12.13
2023-03-02T13:12:49.653Z,12.12
2023-03-02T13:17:58.023Z,12.46
2023-03-02T13:23:01.549Z,12.34
2023-03-02T13:28:07.942Z,11.76
2023-03-02T13:33:23.721Z,12.87
2023-03-02T13:38:31.025Z,13.04
2023-03-02T13:43:40.902Z,12.71
2023-03-02T13:49:10.591Z,13.12
2023-03-02T13:54:30.002Z,12.39
2023-03-02T13:59:37.253Z,10.57
2023-03-02T14:04:41.009Z,10.58
2023-03-02T14:09:53.203Z,12.53
2023-03-02T14:15:05.070Z,11.21
2023-03-02T14:20:40.155Z,10.28
2023-03-02T14:25:43.773Z,13.55
2023-03-02T14:30:55.384Z,12.71
2023-03-02T14:36:18.989Z,13.70
2023-03-02T14:41:38.465Z,13.71
2023-03-02T14:47:12.459Z,12.46
2023-03-02T14:52:44.599Z,13.90
2023-03-02T14:57:56.665Z,13.10
2023-03-02T15:03:01.825Z,13.63
2023-03-02T15:08:06.164Z,13.73
2023-03-02T15:13:17.440Z,13.13
2023-03-02T15:18:27.473Z,12.90
2023-03-02T15:23:34.511Z,13.50
2023-03-02T15:28:38.133Z,13.86
2023-03-02T15:33:45.670Z,12.02
2023-03-02T15:39:18.621Z,10.82
2023-03-02T15:44:28.614Z,13.80
2023-03-02T15:49:47.605Z,10.97
2023-03-02T15:55:00.772Z,12.48
2023-03-02T16:00:17.048Z,11.01
2023-03-02T16:05:22.049Z,13.67
2023-03-02T16:10:32.041Z,13.32
2023-03-02T16:15:46.283Z,13.57
2023-03-02T16:20:53.156Z,13.39
2023-03-02T16:25:59.766Z,13.18
2023-03-02T16:31:11.531Z,12.06
2023-03-02T16:36:23.632Z,12.90
2023-03-02T16:41:29.793Z,12.41
2023-03-02T16:46:43.780Z,11.91
2023-03-02T16:51:49.255Z,9.77
2023-03-02T16:56:55.771Z,10.55
2023-03-02T17:02:01.216Z,12.15
2023-03-02T17:07:09.771Z,10.96
2023-03-02T17:12:14.840Z,11.53
2023-03-02T17:17:18.673Z,11.26
2023-03-02T17:22:29.179Z,10.94
2023-03-02T17:27:35.647Z,11.15
2023-03-02T17:32:49.154Z,7.93
2023-03-02T17:37:54.649Z,11.50
2023-03-02T17:42:58.266Z,11.45
2023-03-02T17:48:01.929Z,9.58
2023-03-02T17:53:06.814Z,9.49
2023-03-02T17:58:10.196Z,9.20
2023-03-02T18:03:15.632Z,11.05
2023-03-02T18:08:20.629Z,11.18
2023-03-02T18:13:24.095Z,11.05
2023-03-02T18:18:27.582Z,10.58
2023-03-02T18:23:32.568Z,9.27
2023-03-02T18:28:35.930Z,10.87
2023-03-02T18:33:39.582Z,10.72
2023-03-02T18:38:44.539Z,9.80
2023-03-02T18:43:51.051Z,9.93
2023-03-02T18:49:00.094Z,10.27
2023-03-02T18:54:11.952Z,10.09
2023-03-02T18:59:20.486Z,9.24
2023-03-02T19:04:26.813Z,9.84
2023-03-02T19:09:31.740Z,9.40
2023-03-02T19:14:35.313Z,9.64
2023-03-02T19:19:43.497Z,9.77
2023-03-02T19:24:52.828Z,8.46
2023-03-02T19:29:58.640Z,8.39
2023-03-02T19:35:02.785Z,9.06
2023-03-02T19:40:09.699Z,9.10
2023-03-02T19:45:16.620Z,9.55
2023-03-02T19:50:22.604Z,9.40
2023-03-02T19:55:28.173Z,9.33
2023-03-02T20:00:33.667Z,9.23
2023-03-02T20:05:37.824Z,8.46
2023-03-02T20:10:44.606Z,9.10
2023-03-02T20:15:48.605Z,8.55
2023-03-02T20:20:52.540Z,8.92
2023-03-02T20:25:57.695Z,7.80
2023-03-02T20:31:07.200Z,8.54
2023-03-02T20:36:13.353Z,8.60
2023-03-02T20:41:19.301Z,6.53
2023-03-02T20:46:26.732Z,8.46
2023-03-02T20:51:33.750Z,8.34
2023-03-02T20:56:39.247Z,6.69
2023-03-02T21:01:43.738Z,8.03
2023-03-02T21:06:49.680Z,7.87
2023-03-02T21:11:58.475Z,7.65
2023-03-02T21:17:03.724Z,6.61
2023-03-02T21:22:09.293Z,7.55
2023-03-02T21:27:16.148Z,6.64
2023-03-02T21:32:22.234Z,7.05
2023-03-02T21:37:27.158Z,7.71
2023-03-02T21:42:33.185Z,7.66
2023-03-02T21:47:40.066Z,7.25
2023-03-02T21:52:44.426Z,7.37
2023-03-02T21:57:50.021Z,7.32
2023-03-02T22:02:54.227Z,7.23
2023-03-02T22:07:58.926Z,6.93
2023-03-02T22:13:17.818Z,7.13
2023-03-02T22:18:25.890Z,6.94
2023-03-02T22:23:30.062Z,6.92
2023-03-02T22:28:42.142Z,6.56
2023-03-02T22:33:46.174Z,6.45
2023-03-02T22:38:51.402Z,6.68
2023-03-02T22:43:58.044Z,6.24
2023-03-02T22:49:01.744Z,6.43
2023-03-02T22:54:16.269Z,6.54
2023-03-02T22:59:24.724Z,6.44
2023-03-02T23:04:32.367Z,6.06
2023-03-02T23:09:36.827Z,6.17
2023-03-02T23:14:48.154Z,6.24
2023-03-02T23:19:52.207Z,5.62
2023-03-02T23:24:55.803Z,5.95
2023-03-02T23:30:00.673Z,5.92
2023-03-02T23:35:04.439Z,5.30
2023-03-02T23:40:09.570Z,5.81
2023-03-02T23:45:15.862Z,5.78
2023-03-02T23:50:19.694Z,4.92
2023-03-02T23:55:23.082Z,5.47
